Chelsea, South Dakota
Current Conditions -  °F | °C
As of 5:53 PM on Friday 21 Nov 2014 (Local Time) from KABR Reporting Station
Overcast Overcast  
Wind Chill: 25°   Ceiling: 10000
Heat Index: 34°   Visibility: 10mi
Dew Point: 28°   Wind: 13mph
Humidity: 79%   Direction: 190°S
Pressure: 29.8"   Gusts: NA
Location:  45.1541°N, 98.6786°W
Report Text: KABR 212353Z AUTO 19011KT 10SM OVC100 01/M02 A2980 RMK AO2 SLP108 T00111022 10011 21028 56002
Loading
Personal Weather Stations






























Interactive Weather Map New forecast layout! Learn more

10-Day Weather Forecast

Advertisements
Track Severe Weather on mobile